createdAt,value
2023-12-01T00:00:15.214Z,2.70
2023-12-01T00:02:41.966Z,2.80
2023-12-01T00:05:11.265Z,2.80
2023-12-01T00:07:38.977Z,2.90
2023-12-01T00:10:10.812Z,2.90
2023-12-01T00:12:37.570Z,2.80
2023-12-01T00:15:05.260Z,2.60
2023-12-01T00:17:32.053Z,2.70
2023-12-01T00:19:58.801Z,3.30
2023-12-01T00:22:25.855Z,3.30
2023-12-01T00:24:52.537Z,2.80
2023-12-01T00:27:19.189Z,2.60
2023-12-01T00:29:45.900Z,2.80
2023-12-01T00:32:12.618Z,3.20
2023-12-01T00:34:39.473Z,3.30
2023-12-01T00:37:06.144Z,3.50
2023-12-01T00:39:33.061Z,3.40
2023-12-01T00:41:59.804Z,3.40
2023-12-01T00:44:26.574Z,3.30
2023-12-01T00:46:53.302Z,3.30
2023-12-01T00:49:20.031Z,3.30
2023-12-01T00:51:47.109Z,3.50
2023-12-01T00:54:17.035Z,3.50
2023-12-01T00:56:46.341Z,3.70
2023-12-01T00:59:13.703Z,4.00
2023-12-01T01:01:40.486Z,3.90
2023-12-01T01:04:09.586Z,3.90
2023-12-01T01:06:39.569Z,4.30
2023-12-01T01:09:06.229Z,4.20
2023-12-01T01:11:32.931Z,4.00
2023-12-01T01:14:00.557Z,3.80
2023-12-01T01:16:27.345Z,3.60
2023-12-01T01:18:55.649Z,3.90
2023-12-01T01:21:22.601Z,3.80
2023-12-01T01:23:49.286Z,3.80
2023-12-01T01:26:16.062Z,3.70
2023-12-01T01:28:42.751Z,3.40
2023-12-01T01:31:09.504Z,3.00
2023-12-01T01:33:37.323Z,3.00
2023-12-01T01:36:05.572Z,3.00
2023-12-01T01:38:32.275Z,3.00
2023-12-01T01:41:01.469Z,2.80
2023-12-01T01:43:28.107Z,2.50
2023-12-01T01:46:11.320Z,2.70
2023-12-01T01:48:39.293Z,2.70
2023-12-01T01:51:10.401Z,2.20
2023-12-01T01:53:39.061Z,2.40
2023-12-01T01:56:06.256Z,2.40
2023-12-01T01:58:33.016Z,2.70
2023-12-01T02:00:59.818Z,2.60
2023-12-01T02:03:26.604Z,2.70
2023-12-01T02:05:53.429Z,2.70
2023-12-01T02:08:26.120Z,2.70
2023-12-01T02:10:56.541Z,2.80
2023-12-01T02:13:24.948Z,2.70
2023-12-01T02:15:52.404Z,2.70
2023-12-01T02:18:24.090Z,2.70
2023-12-01T02:20:52.734Z,2.70
2023-12-01T02:23:22.601Z,2.80
2023-12-01T02:25:49.719Z,2.60
2023-12-01T02:28:17.719Z,2.70
2023-12-01T02:30:54.845Z,2.80
2023-12-01T02:33:25.017Z,2.80
2023-12-01T02:35:53.831Z,2.90
2023-12-01T02:38:20.875Z,2.60
2023-12-01T02:40:51.737Z,2.70
2023-12-01T02:43:20.379Z,2.60
2023-12-01T02:45:49.471Z,2.80
2023-12-01T02:48:19.222Z,2.70
2023-12-01T02:50:57.707Z,2.60
2023-12-01T02:53:24.658Z,2.70
2023-12-01T02:55:51.392Z,2.80
2023-12-01T02:58:18.136Z,2.70
2023-12-01T03:00:45.229Z,2.80
2023-12-01T03:03:12.052Z,2.50
2023-12-01T03:05:38.765Z,2.60
2023-12-01T03:08:05.637Z,2.70
2023-12-01T03:10:32.427Z,2.70
2023-12-01T03:13:02.332Z,2.70
2023-12-01T03:15:32.532Z,2.60
2023-12-01T03:18:00.187Z,2.70
2023-12-01T03:20:28.996Z,2.70
2023-12-01T03:22:58.497Z,2.80
2023-12-01T03:25:28.329Z,2.40
2023-12-01T03:27:55.116Z,2.50
2023-12-01T03:30:22.060Z,2.60
2023-12-01T03:32:50.664Z,2.30
2023-12-01T03:35:19.263Z,2.10
2023-12-01T03:37:46.339Z,2.20
2023-12-01T03:40:13.969Z,2.10
2023-12-01T03:42:49.139Z,2.10
2023-12-01T03:45:17.151Z,2.10
2023-12-01T03:47:53.626Z,2.20
2023-12-01T03:50:21.436Z,2.30
2023-12-01T03:52:50.159Z,2.30
2023-12-01T03:55:17.344Z,2.50
2023-12-01T03:57:49.040Z,2.50
2023-12-01T04:00:19.631Z,2.50
2023-12-01T04:02:47.968Z,2.50
2023-12-01T04:05:23.279Z,2.50
2023-12-01T04:07:53.838Z,2.50
2023-12-01T04:10:22.720Z,2.60
2023-12-01T04:12:52.319Z,2.40
2023-12-01T04:15:20.294Z,2.30
2023-12-01T04:17:49.221Z,2.30
2023-12-01T04:20:28.634Z,2.30
2023-12-01T04:23:00.965Z,2.50
2023-12-01T04:25:28.789Z,2.60
2023-12-01T04:27:57.412Z,2.60
2023-12-01T04:30:24.883Z,2.40
2023-12-01T04:32:57.600Z,2.50
2023-12-01T04:35:27.541Z,2.40
2023-12-01T04:37:54.823Z,2.40
2023-12-01T04:40:21.664Z,2.40
2023-12-01T04:42:50.132Z,2.50
2023-12-01T04:45:20.804Z,2.50
2023-12-01T04:47:52.721Z,2.60
2023-12-01T04:50:25.145Z,2.60
2023-12-01T04:52:54.377Z,2.60
2023-12-01T04:55:24.076Z,2.50
2023-12-01T04:57:50.922Z,2.50
2023-12-01T05:00:23.584Z,2.40
2023-12-01T05:02:58.328Z,2.30
2023-12-01T05:05:32.397Z,2.30
2023-12-01T05:08:01.388Z,2.40
2023-12-01T05:10:29.734Z,2.30
2023-12-01T05:12:58.097Z,2.20
2023-12-01T05:15:27.141Z,2.40
2023-12-01T05:18:00.879Z,2.50
2023-12-01T05:20:30.800Z,2.40
2023-12-01T05:23:03.200Z,2.50
2023-12-01T05:25:33.970Z,2.50
2023-12-01T05:28:03.503Z,2.50
2023-12-01T05:30:35.232Z,2.60
2023-12-01T05:33:03.141Z,2.70
2023-12-01T05:35:30.271Z,2.60
2023-12-01T05:37:58.928Z,2.60
2023-12-01T05:40:28.412Z,2.60
2023-12-01T05:42:59.188Z,2.80
2023-12-01T05:45:28.324Z,2.80
2023-12-01T05:47:56.830Z,2.80
2023-12-01T05:50:25.973Z,2.80
2023-12-01T05:52:54.563Z,3.10
2023-12-01T05:55:30.109Z,3.10
2023-12-01T05:58:10.317Z,3.00
2023-12-01T06:00:38.193Z,3.10
2023-12-01T06:03:10.274Z,3.10
2023-12-01T06:05:38.868Z,2.80
2023-12-01T06:08:06.628Z,2.50
2023-12-01T06:10:34.353Z,2.60
2023-12-01T06:13:01.876Z,2.70
2023-12-01T06:15:32.336Z,2.90
2023-12-01T06:18:00.196Z,3.00
2023-12-01T06:20:27.929Z,3.00
2023-12-01T06:22:58.855Z,3.00
2023-12-01T06:25:30.563Z,2.70
2023-12-01T06:27:59.267Z,2.80
2023-12-01T06:30:27.963Z,3.00
2023-12-01T06:32:55.524Z,3.00
2023-12-01T06:35:22.895Z,3.50
2023-12-01T06:37:50.757Z,3.70
2023-12-01T06:40:19.800Z,3.70
2023-12-01T06:42:53.411Z,3.80
2023-12-01T06:45:29.448Z,3.90
2023-12-01T06:48:01.659Z,4.00
2023-12-01T06:50:29.904Z,3.80
2023-12-01T06:53:00.273Z,3.70
2023-12-01T06:55:27.395Z,3.50
2023-12-01T06:57:54.186Z,3.30
2023-12-01T07:00:32.475Z,3.70
2023-12-01T07:03:10.965Z,3.80
2023-12-01T07:05:40.914Z,3.90
2023-12-01T07:08:15.765Z,3.80
2023-12-01T07:10:49.729Z,3.70
2023-12-01T07:13:17.216Z,3.70
2023-12-01T07:15:44.082Z,3.70
2023-12-01T07:18:12.891Z,3.80
2023-12-01T07:20:39.785Z,3.50
2023-12-01T07:23:08.059Z,3.40
2023-12-01T07:25:38.506Z,3.10
2023-12-01T07:28:08.878Z,3.10
2023-12-01T07:30:41.522Z,3.30
2023-12-01T07:33:09.586Z,3.30
2023-12-01T07:35:36.304Z,3.40
2023-12-01T07:38:05.536Z,3.50
2023-12-01T07:40:35.304Z,3.60
2023-12-01T07:43:04.358Z,3.30
2023-12-01T07:45:36.192Z,3.20
2023-12-01T07:48:06.244Z,3.20
2023-12-01T07:50:40.562Z,3.10
2023-12-01T07:53:08.447Z,3.00
2023-12-01T07:55:35.268Z,3.00
2023-12-01T07:58:04.768Z,3.10
2023-12-01T08:00:42.352Z,3.40
2023-12-01T08:03:18.505Z,3.40
2023-12-01T08:05:45.390Z,3.60
2023-12-01T08:08:12.990Z,4.00
2023-12-01T08:10:41.799Z,3.90
2023-12-01T08:13:09.345Z,4.10
2023-12-01T08:15:36.370Z,4.30
2023-12-01T08:18:03.325Z,4.30
2023-12-01T08:20:32.843Z,4.40
2023-12-01T08:22:59.922Z,4.20
2023-12-01T08:25:28.700Z,4.10
2023-12-01T08:27:58.365Z,4.10
2023-12-01T08:30:27.776Z,4.00
2023-12-01T08:32:55.420Z,4.00
2023-12-01T08:35:22.830Z,4.00
2023-12-01T08:37:49.680Z,4.10
2023-12-01T08:40:16.895Z,4.20
2023-12-01T08:42:45.109Z,4.40
2023-12-01T08:45:12.652Z,4.50
2023-12-01T08:47:40.590Z,4.60
2023-12-01T08:50:13.920Z,4.90
2023-12-01T08:52:41.412Z,4.70
2023-12-01T08:55:08.844Z,4.60
2023-12-01T08:57:35.827Z,4.60
2023-12-01T09:00:03.071Z,4.60
2023-12-01T09:02:32.308Z,4.70
2023-12-01T09:04:59.268Z,4.50
2023-12-01T09:07:29.710Z,4.50
2023-12-01T09:10:01.527Z,4.50
2023-12-01T09:12:31.377Z,4.60
2023-12-01T09:14:59.777Z,4.40
2023-12-01T09:17:26.566Z,4.50
2023-12-01T09:19:53.353Z,4.60
2023-12-01T09:22:20.143Z,4.50
2023-12-01T09:24:51.700Z,4.80
2023-12-01T09:27:18.667Z,4.70
2023-12-01T09:29:45.362Z,4.60
2023-12-01T09:32:12.220Z,4.60
2023-12-01T09:34:38.893Z,4.80
2023-12-01T09:37:10.067Z,4.90
2023-12-01T09:39:36.904Z,4.70
2023-12-01T09:42:09.356Z,4.70
2023-12-01T09:44:39.245Z,5.00
2023-12-01T09:47:13.777Z,5.30
2023-12-01T09:49:43.761Z,5.30
2023-12-01T09:52:10.483Z,5.10
2023-12-01T09:54:37.401Z,5.30
2023-12-01T09:57:09.628Z,5.30
2023-12-01T09:59:38.077Z,5.20
2023-12-01T10:02:05.431Z,5.10
2023-12-01T10:04:36.367Z,5.30
2023-12-01T10:07:04.435Z,5.20
2023-12-01T10:09:40.724Z,5.40
2023-12-01T10:12:11.893Z,5.20
2023-12-01T10:14:44.371Z,5.20
2023-12-01T10:17:25.867Z,4.90
2023-12-01T10:19:53.209Z,4.90
2023-12-01T10:22:23.718Z,5.10
2023-12-01T10:25:13.292Z,4.90
2023-12-01T10:27:45.860Z,4.90
2023-12-01T10:30:17.662Z,4.80
2023-12-01T10:32:49.936Z,4.80
2023-12-01T10:35:20.319Z,4.80
2023-12-01T10:37:50.758Z,5.10
2023-12-01T10:40:23.046Z,5.20
2023-12-01T10:42:52.865Z,5.10
2023-12-01T10:45:20.138Z,5.00
2023-12-01T10:47:52.660Z,4.90
2023-12-01T10:50:20.450Z,5.20
2023-12-01T10:52:54.658Z,4.70
2023-12-01T10:55:25.860Z,4.70
2023-12-01T10:57:54.284Z,4.40
2023-12-01T11:00:31.823Z,4.50
2023-12-01T11:03:04.659Z,4.90
2023-12-01T11:05:34.540Z,4.80
2023-12-01T11:08:36.797Z,5.00
2023-12-01T11:11:25.633Z,4.80
2023-12-01T11:14:17.237Z,4.60
2023-12-01T11:16:45.154Z,4.20
2023-12-01T11:19:20.292Z,4.00
2023-12-01T11:24:48.037Z,4.10
2023-12-01T11:27:16.560Z,4.00
2023-12-01T11:30:13.930Z,4.20
2023-12-01T11:33:00.160Z,4.20
2023-12-01T11:35:29.140Z,4.00
2023-12-01T11:38:06.742Z,4.00
2023-12-01T11:40:48.586Z,4.30
2023-12-01T11:43:19.869Z,4.00
2023-12-01T11:45:57.304Z,3.80
2023-12-01T11:48:27.130Z,3.70
2023-12-01T11:50:54.064Z,3.70
2023-12-01T11:53:21.460Z,3.70
2023-12-01T11:55:51.941Z,3.70
2023-12-01T11:58:26.469Z,3.90
2023-12-01T12:00:53.178Z,3.90
2023-12-01T12:03:21.849Z,3.80
2023-12-01T12:05:54.398Z,3.80
2023-12-01T12:08:25.142Z,3.80
2023-12-01T12:10:52.027Z,3.80
2023-12-01T12:13:21.628Z,3.70
2023-12-01T12:15:55.966Z,3.80
2023-12-01T12:18:28.472Z,3.90
2023-12-01T12:21:01.969Z,3.90
2023-12-01T12:23:31.619Z,4.00
2023-12-01T12:26:19.528Z,3.90
2023-12-01T12:29:02.402Z,3.70
2023-12-01T12:31:33.997Z,4.00
2023-12-01T12:34:01.755Z,3.90
2023-12-01T12:36:35.954Z,4.00
2023-12-01T12:39:09.995Z,4.10
2023-12-01T12:41:41.679Z,3.60
2023-12-01T12:44:11.047Z,3.40
2023-12-01T12:46:41.265Z,3.50
2023-12-01T12:49:12.157Z,3.30
2023-12-01T12:51:40.121Z,3.60
2023-12-01T12:54:16.331Z,3.80
2023-12-01T12:56:46.295Z,4.00
2023-12-01T12:59:13.498Z,4.00
2023-12-01T13:01:40.306Z,4.20
2023-12-01T13:04:07.216Z,4.10
2023-12-01T13:06:47.934Z,4.20
2023-12-01T13:09:19.877Z,4.10
2023-12-01T13:11:47.806Z,4.20
2023-12-01T13:14:15.617Z,4.20
2023-12-01T13:19:22.544Z,4.00
2023-12-01T13:21:51.028Z,4.10
2023-12-01T13:24:29.744Z,4.10
2023-12-01T13:26:56.646Z,3.90
2023-12-01T13:29:23.894Z,3.70
2023-12-01T13:31:53.454Z,3.80
2023-12-01T13:34:20.527Z,3.80
2023-12-01T13:36:50.018Z,3.70
2023-12-01T13:39:23.502Z,4.00
2023-12-01T13:41:50.668Z,4.00
2023-12-01T13:44:17.830Z,3.90
2023-12-01T13:46:52.350Z,4.00
2023-12-01T13:49:19.178Z,4.10
2023-12-01T13:51:51.729Z,3.50
2023-12-01T13:54:18.408Z,3.30
2023-12-01T13:56:49.018Z,3.10
2023-12-01T13:59:17.083Z,2.80
2023-12-01T14:01:46.766Z,2.90
2023-12-01T14:04:14.649Z,3.00
2023-12-01T14:06:41.670Z,2.70
2023-12-01T14:09:08.388Z,2.60
2023-12-01T14:11:35.315Z,2.60
2023-12-01T14:14:02.121Z,2.90
2023-12-01T14:16:28.961Z,2.80
2023-12-01T14:18:58.053Z,2.70
2023-12-01T14:21:26.318Z,2.80
2023-12-01T14:23:53.184Z,2.60
2023-12-01T14:26:22.558Z,2.60
2023-12-01T14:28:51.888Z,2.80
2023-12-01T14:31:21.355Z,2.60
2023-12-01T14:33:48.359Z,2.60
2023-12-01T14:36:15.559Z,2.40
2023-12-01T14:38:42.642Z,2.40
2023-12-01T14:41:09.905Z,2.50
2023-12-01T14:43:36.936Z,2.50
2023-12-01T14:46:07.288Z,2.50
2023-12-01T14:48:34.329Z,2.50
2023-12-01T14:51:07.164Z,2.20
2023-12-01T14:53:37.816Z,2.20
2023-12-01T14:56:06.071Z,2.40
2023-12-01T14:58:33.764Z,2.80
2023-12-01T15:01:00.566Z,2.70
2023-12-01T15:03:27.311Z,2.50
2023-12-01T15:05:55.937Z,2.50
2023-12-01T15:08:25.233Z,2.40
2023-12-01T15:13:39.959Z,3.00
2023-12-01T15:16:07.319Z,2.60
2023-12-01T15:18:37.087Z,2.50
2023-12-01T15:21:09.449Z,2.50
2023-12-01T15:23:38.796Z,2.50
2023-12-01T15:26:06.026Z,2.50
2023-12-01T15:28:42.843Z,2.40
2023-12-01T15:31:12.375Z,2.50
2023-12-01T15:33:39.379Z,2.30
2023-12-01T15:36:06.728Z,2.40
2023-12-01T15:38:33.430Z,2.10
2023-12-01T15:41:00.285Z,2.30
2023-12-01T15:43:27.019Z,2.30
2023-12-01T15:45:56.098Z,2.40
2023-12-01T15:48:22.850Z,2.50
2023-12-01T15:50:49.551Z,2.40
2023-12-01T15:53:16.250Z,2.20
2023-12-01T15:55:46.063Z,2.30
2023-12-01T15:58:13.064Z,2.30
2023-12-01T16:00:42.020Z,2.20
2023-12-01T16:03:10.706Z,2.30
2023-12-01T16:05:37.467Z,2.20
2023-12-01T16:08:06.024Z,2.30
2023-12-01T16:10:32.805Z,2.60
2023-12-01T16:12:59.565Z,2.80
2023-12-01T16:15:27.695Z,3.10
2023-12-01T16:17:54.725Z,2.60
2023-12-01T16:20:22.679Z,2.70
2023-12-01T16:22:49.700Z,2.80
2023-12-01T16:25:16.687Z,2.70
2023-12-01T16:27:43.327Z,2.60
2023-12-01T16:30:10.637Z,2.90
2023-12-01T16:32:38.800Z,2.90
2023-12-01T16:35:07.788Z,2.90
2023-12-01T16:37:36.054Z,3.50
2023-12-01T16:40:06.379Z,3.60
2023-12-01T16:42:33.799Z,3.50
2023-12-01T16:45:00.899Z,2.60
2023-12-01T16:47:29.047Z,2.60
2023-12-01T16:49:55.902Z,2.50
2023-12-01T16:52:22.884Z,3.20
2023-12-01T16:54:56.362Z,2.70
2023-12-01T16:57:23.204Z,2.50
2023-12-01T16:59:50.132Z,2.50
2023-12-01T17:02:16.937Z,2.10
2023-12-01T17:04:46.133Z,2.40
2023-12-01T17:07:12.878Z,2.90
2023-12-01T17:09:43.382Z,2.50
2023-12-01T17:12:10.161Z,2.50
2023-12-01T17:14:41.646Z,3.50
2023-12-01T17:17:11.457Z,3.80
2023-12-01T17:19:38.829Z,3.70
2023-12-01T17:22:05.571Z,2.60
2023-12-01T17:24:32.214Z,2.40
2023-12-01T17:26:58.892Z,2.70
2023-12-01T17:29:26.481Z,3.30
2023-12-01T17:31:53.888Z,3.10
2023-12-01T17:34:20.587Z,3.00
2023-12-01T17:36:47.373Z,3.30
2023-12-01T17:39:14.128Z,3.40
2023-12-01T17:41:40.846Z,3.60
2023-12-01T17:44:07.830Z,4.00
2023-12-01T17:46:35.250Z,4.10
2023-12-01T17:49:02.041Z,4.20
2023-12-01T17:51:28.985Z,4.10
2023-12-01T17:53:55.760Z,4.00
2023-12-01T17:56:22.935Z,3.90
2023-12-01T17:58:54.951Z,3.60
2023-12-01T18:01:25.455Z,3.70
2023-12-01T18:03:55.479Z,3.50
2023-12-01T18:06:22.317Z,3.50
2023-12-01T18:08:49.153Z,3.80
2023-12-01T18:11:15.901Z,3.80
2023-12-01T18:13:42.672Z,3.70
2023-12-01T18:16:10.669Z,3.90
2023-12-01T18:18:37.878Z,4.10
2023-12-01T18:21:05.009Z,3.90
2023-12-01T18:23:32.002Z,3.50
2023-12-01T18:25:59.062Z,3.30
2023-12-01T18:28:26.588Z,3.40
2023-12-01T18:30:54.596Z,3.40
2023-12-01T18:33:23.385Z,3.40
2023-12-01T18:35:50.443Z,3.10
2023-12-01T18:38:22.485Z,2.80
2023-12-01T18:40:49.256Z,3.50
2023-12-01T18:43:16.153Z,3.30
2023-12-01T18:45:43.638Z,3.30
2023-12-01T18:48:10.527Z,3.00
2023-12-01T18:50:37.494Z,2.70
2023-12-01T18:53:04.226Z,2.60
2023-12-01T18:55:31.040Z,2.40
2023-12-01T18:57:57.818Z,2.70
2023-12-01T19:00:24.883Z,2.70
2023-12-01T19:02:52.139Z,2.50
2023-12-01T19:05:21.483Z,2.30
2023-12-01T19:07:49.884Z,3.00
2023-12-01T19:10:16.987Z,3.60
2023-12-01T19:12:45.063Z,3.50
2023-12-01T19:15:16.226Z,3.40
2023-12-01T19:17:43.063Z,3.20
2023-12-01T19:20:10.357Z,3.20
2023-12-01T19:22:37.006Z,3.60
2023-12-01T19:25:05.890Z,3.50
2023-12-01T19:27:32.617Z,3.20
2023-12-01T19:29:59.316Z,3.00
2023-12-01T19:32:28.534Z,3.10
2023-12-01T19:34:55.221Z,2.90
2023-12-01T19:37:22.197Z,2.70
2023-12-01T19:39:48.867Z,2.70
2023-12-01T19:42:17.605Z,3.00
2023-12-01T19:44:44.478Z,3.10
2023-12-01T19:47:11.414Z,3.30
2023-12-01T19:49:38.312Z,3.20
2023-12-01T19:52:05.214Z,2.90
2023-12-01T19:54:31.928Z,3.10
2023-12-01T19:56:58.712Z,3.30
2023-12-01T19:59:25.552Z,3.30
2023-12-01T20:01:52.310Z,3.30
2023-12-01T20:04:19.186Z,3.10
2023-12-01T20:06:46.049Z,3.10
2023-12-01T20:09:15.308Z,2.60
2023-12-01T20:11:42.413Z,2.40
2023-12-01T20:14:10.630Z,2.60
2023-12-01T20:16:40.274Z,2.80
2023-12-01T20:19:07.097Z,2.30
2023-12-01T20:21:34.996Z,2.30
2023-12-01T20:24:01.752Z,2.40
2023-12-01T20:26:28.527Z,2.60
2023-12-01T20:28:56.142Z,2.70
2023-12-01T20:31:23.067Z,2.60
2023-12-01T20:33:49.864Z,2.50
2023-12-01T20:36:16.669Z,2.50
2023-12-01T20:38:46.740Z,2.70
2023-12-01T20:41:13.613Z,3.00
2023-12-01T20:43:40.327Z,3.10
2023-12-01T20:46:14.793Z,3.00
2023-12-01T20:48:42.113Z,3.00
2023-12-01T20:51:14.377Z,2.90
2023-12-01T20:53:41.550Z,2.70
2023-12-01T20:56:09.008Z,2.90
2023-12-01T20:58:35.656Z,2.90
2023-12-01T21:01:02.503Z,3.40
2023-12-01T21:03:29.376Z,2.80
2023-12-01T21:06:01.713Z,2.50
2023-12-01T21:08:34.694Z,1.80
2023-12-01T21:11:01.388Z,1.80
2023-12-01T21:13:28.033Z,1.60
2023-12-01T21:15:55.025Z,1.60
2023-12-01T21:18:21.967Z,1.40
2023-12-01T21:20:48.829Z,0.90
2023-12-01T21:23:15.930Z,0.90
2023-12-01T21:25:42.727Z,0.90
2023-12-01T21:28:12.393Z,1.00
2023-12-01T21:30:39.880Z,1.00
2023-12-01T21:33:08.672Z,0.80
2023-12-01T21:35:38.294Z,0.80
2023-12-01T21:38:05.178Z,0.70
2023-12-01T21:40:32.547Z,0.60
2023-12-01T21:42:59.365Z,0.60
2023-12-01T21:45:26.012Z,0.90
2023-12-01T21:47:55.218Z,1.00
2023-12-01T21:50:22.315Z,0.90
2023-12-01T21:52:49.177Z,0.90
2023-12-01T21:55:16.049Z,0.80
2023-12-01T21:57:42.693Z,0.80
2023-12-01T22:00:10.131Z,0.90
2023-12-01T22:02:36.912Z,1.20
2023-12-01T22:05:04.105Z,1.20
2023-12-01T22:07:30.837Z,1.40
2023-12-01T22:09:57.673Z,1.80
2023-12-01T22:12:24.391Z,2.00
2023-12-01T22:14:51.131Z,2.10
2023-12-01T22:17:17.953Z,2.00
2023-12-01T22:19:44.811Z,1.80
2023-12-01T22:22:18.976Z,2.00
2023-12-01T22:24:48.877Z,1.80
2023-12-01T22:27:15.747Z,1.40
2023-12-01T22:29:42.545Z,1.80
2023-12-01T22:32:09.503Z,1.60
2023-12-01T22:34:36.367Z,1.60
2023-12-01T22:37:03.077Z,1.40
2023-12-01T22:39:33.071Z,1.80
2023-12-01T22:41:59.892Z,2.10
2023-12-01T22:44:34.754Z,2.10
2023-12-01T22:47:01.924Z,2.10
2023-12-01T22:49:31.566Z,2.00
2023-12-01T22:51:58.374Z,2.50
2023-12-01T22:54:25.129Z,2.60
2023-12-01T22:56:51.915Z,2.60
2023-12-01T22:59:19.571Z,2.50
2023-12-01T23:01:46.383Z,2.20
2023-12-01T23:04:13.551Z,2.10
2023-12-01T23:06:40.551Z,2.20
2023-12-01T23:09:09.383Z,2.20
2023-12-01T23:11:36.224Z,1.70
2023-12-01T23:14:02.921Z,1.60
2023-12-01T23:16:30.967Z,1.00
2023-12-01T23:18:57.924Z,1.00
2023-12-01T23:21:25.216Z,1.20
2023-12-01T23:23:51.965Z,1.60
2023-12-01T23:26:21.457Z,2.10
2023-12-01T23:28:48.281Z,2.40
2023-12-01T23:31:17.455Z,2.30
2023-12-01T23:33:44.304Z,2.50
2023-12-01T23:36:11.494Z,2.60
2023-12-01T23:38:38.447Z,2.60
2023-12-01T23:41:12.972Z,2.60
2023-12-01T23:43:39.814Z,2.30
2023-12-01T23:46:06.747Z,2.10
2023-12-01T23:48:33.605Z,1.80
2023-12-01T23:51:00.372Z,1.70
2023-12-01T23:53:28.837Z,1.40
2023-12-01T23:55:55.998Z,1.50
2023-12-01T23:58:22.681Z,1.50
